Terminal Aerodrome Forecast
Issued by NWS Cleveland, OH

Home | Current Version | Previous Version | Text Only | Print | Product List | Glossary Off
Versions: 1 2 3 4 5 6 7 8 9 10 11 12 13 14 15 16 17 18 19 20 21 22 23 24 25 26 27 28 29 30 31 32 33

000
FTUS41 KCLE 291500 AAA
TAFCLE
TAF AMD
KCLE 291508Z 2915/3018 36005KT P6SM SKC
     FM300000 VRB05KT P6SM SCT100 BKN250
     FM300900 26005KT P6SM VCSH BKN050 OVC100
     FM301200 32007KT P6SM BKN015 OVC040=

USA.gov is the U.S. government's official web portal to all federal, state and local government web resources and services.